sensor_id;sensor_type;location;lat;lon;timestamp;pressure;altitude;pressure_sealevel;temperature;humidity
9129;BME280;4599;50.906;6.786;2023-11-18T00:02:04;101153.44;;;2.56;96.63
9129;BME280;4599;50.906;6.786;2023-11-18T00:06:07;101148.47;;;2.53;96.84
9129;BME280;4599;50.906;6.786;2023-11-18T00:10:10;101155.34;;;2.48;96.65
9129;BME280;4599;50.906;6.786;2023-11-18T00:14:12;101149.41;;;2.50;97.02
9129;BME280;4599;50.906;6.786;2023-11-18T00:18:13;101160.47;;;2.45;97.54
9129;BME280;4599;50.906;6.786;2023-11-18T00:22:16;101161.13;;;2.53;96.98
9129;BME280;4599;50.906;6.786;2023-11-18T00:26:17;101159.63;;;2.46;97.80
9129;BME280;4599;50.906;6.786;2023-11-18T00:30:19;101160.16;;;2.59;97.62
9129;BME280;4599;50.906;6.786;2023-11-18T00:34:20;101152.00;;;2.47;97.61
9129;BME280;4599;50.906;6.786;2023-11-18T00:38:23;101149.25;;;2.55;97.66
9129;BME280;4599;50.906;6.786;2023-11-18T00:42:25;101144.81;;;2.65;97.62
9129;BME280;4599;50.906;6.786;2023-11-18T00:46:26;101138.94;;;2.63;96.99
9129;BME280;4599;50.906;6.786;2023-11-18T00:50:28;101147.25;;;2.68;97.33
9129;BME280;4599;50.906;6.786;2023-11-18T00:54:31;101129.00;;;2.57;97.78
9129;BME280;4599;50.906;6.786;2023-11-18T00:58:32;101138.16;;;2.61;98.27
9129;BME280;4599;50.906;6.786;2023-11-18T01:02:34;101140.28;;;2.76;97.84
9129;BME280;4599;50.906;6.786;2023-11-18T01:06:36;101140.13;;;2.82;97.82
9129;BME280;4599;50.906;6.786;2023-11-18T01:10:38;101136.72;;;2.83;97.85
9129;BME280;4599;50.906;6.786;2023-11-18T01:14:40;101144.34;;;2.81;98.43
9129;BME280;4599;50.906;6.786;2023-11-18T01:18:41;101143.41;;;2.85;98.49
9129;BME280;4599;50.906;6.786;2023-11-18T01:22:43;101144.16;;;2.89;98.25
9129;BME280;4599;50.906;6.786;2023-11-18T01:26:46;101139.75;;;2.95;98.13
9129;BME280;4599;50.906;6.786;2023-11-18T01:30:48;101145.75;;;2.91;98.53
9129;BME280;4599;50.906;6.786;2023-11-18T01:34:50;101153.31;;;2.93;98.72
9129;BME280;4599;50.906;6.786;2023-11-18T01:38:51;101159.59;;;3.09;98.77
9129;BME280;4599;50.906;6.786;2023-11-18T01:42:54;101169.06;;;3.03;98.88
9129;BME280;4599;50.906;6.786;2023-11-18T01:46:56;101181.78;;;3.01;99.14
9129;BME280;4599;50.906;6.786;2023-11-18T01:50:58;101174.78;;;3.11;99.19
9129;BME280;4599;50.906;6.786;2023-11-18T01:55:01;101148.06;;;2.99;99.20
9129;BME280;4599;50.906;6.786;2023-11-18T01:59:05;101157.97;;;3.08;98.90
9129;BME280;4599;50.906;6.786;2023-11-18T02:03:06;101167.78;;;3.19;99.08
9129;BME280;4599;50.906;6.786;2023-11-18T02:07:08;101164.47;;;3.17;99.17
9129;BME280;4599;50.906;6.786;2023-11-18T02:11:16;101165.28;;;3.17;99.04
9129;BME280;4599;50.906;6.786;2023-11-18T02:15:20;101150.88;;;3.19;99.04
9129;BME280;4599;50.906;6.786;2023-11-18T02:19:24;101150.66;;;3.27;99.01
9129;BME280;4599;50.906;6.786;2023-11-18T02:23:26;101153.16;;;3.28;98.83
9129;BME280;4599;50.906;6.786;2023-11-18T02:27:29;101148.94;;;3.29;98.67
9129;BME280;4599;50.906;6.786;2023-11-18T02:31:33;101144.81;;;3.25;98.63
9129;BME280;4599;50.906;6.786;2023-11-18T02:35:46;101154.72;;;3.32;98.34
9129;BME280;4599;50.906;6.786;2023-11-18T02:39:53;101146.41;;;3.29;98.80
9129;BME280;4599;50.906;6.786;2023-11-18T02:44:00;101150.56;;;3.30;99.04
9129;BME280;4599;50.906;6.786;2023-11-18T02:48:02;101153.72;;;3.38;98.73
9129;BME280;4599;50.906;6.786;2023-11-18T02:52:04;101143.38;;;3.44;99.13
9129;BME280;4599;50.906;6.786;2023-11-18T02:56:08;101147.72;;;3.40;98.60
9129;BME280;4599;50.906;6.786;2023-11-18T03:00:12;101146.81;;;3.43;98.89
9129;BME280;4599;50.906;6.786;2023-11-18T03:04:14;101145.19;;;3.40;98.58
9129;BME280;4599;50.906;6.786;2023-11-18T03:08:15;101160.53;;;3.36;99.18
9129;BME280;4599;50.906;6.786;2023-11-18T03:12:17;101148.13;;;3.55;98.30
9129;BME280;4599;50.906;6.786;2023-11-18T03:16:20;101151.78;;;3.46;98.07
9129;BME280;4599;50.906;6.786;2023-11-18T03:20:22;101121.00;;;3.30;98.43
9129;BME280;4599;50.906;6.786;2023-11-18T03:24:25;101124.88;;;3.42;98.59
9129;BME280;4599;50.906;6.786;2023-11-18T03:28:26;101128.16;;;3.45;98.39
9129;BME280;4599;50.906;6.786;2023-11-18T03:32:29;101127.69;;;3.61;97.82
9129;BME280;4599;50.906;6.786;2023-11-18T03:36:31;101123.84;;;3.47;98.08
9129;BME280;4599;50.906;6.786;2023-11-18T03:40:32;101114.09;;;3.35;98.13
9129;BME280;4599;50.906;6.786;2023-11-18T03:44:34;101105.56;;;3.38;98.38
9129;BME280;4599;50.906;6.786;2023-11-18T03:48:37;101110.72;;;3.36;98.02
9129;BME280;4599;50.906;6.786;2023-11-18T03:52:38;101106.50;;;3.35;98.35
9129;BME280;4599;50.906;6.786;2023-11-18T03:56:40;101129.22;;;3.38;98.11
9129;BME280;4599;50.906;6.786;2023-11-18T04:00:42;101138.78;;;3.29;98.59
9129;BME280;4599;50.906;6.786;2023-11-18T04:04:44;101116.53;;;3.38;98.29
9129;BME280;4599;50.906;6.786;2023-11-18T04:08:46;101129.34;;;3.34;98.18
9129;BME280;4599;50.906;6.786;2023-11-18T04:12:47;101128.50;;;3.33;98.39
9129;BME280;4599;50.906;6.786;2023-11-18T04:16:49;101123.44;;;3.33;98.53
9129;BME280;4599;50.906;6.786;2023-11-18T04:20:52;101116.84;;;3.29;98.14
9129;BME280;4599;50.906;6.786;2023-11-18T04:24:53;101114.63;;;3.17;98.83
9129;BME280;4599;50.906;6.786;2023-11-18T04:28:55;101103.78;;;3.14;98.50
9129;BME280;4599;50.906;6.786;2023-11-18T04:32:56;101085.03;;;3.19;98.78
9129;BME280;4599;50.906;6.786;2023-11-18T04:36:59;101090.44;;;3.36;98.33
9129;BME280;4599;50.906;6.786;2023-11-18T04:41:01;101079.72;;;3.27;98.29
9129;BME280;4599;50.906;6.786;2023-11-18T04:45:03;101070.53;;;3.24;98.53
9129;BME280;4599;50.906;6.786;2023-11-18T04:49:05;101084.91;;;3.24;98.54
9129;BME280;4599;50.906;6.786;2023-11-18T04:53:09;101074.03;;;3.20;98.45
9129;BME280;4599;50.906;6.786;2023-11-18T04:57:10;101055.34;;;3.24;98.47
9129;BME280;4599;50.906;6.786;2023-11-18T05:01:12;101058.81;;;3.22;98.79
9129;BME280;4599;50.906;6.786;2023-11-18T05:05:13;101047.97;;;3.17;98.93
9129;BME280;4599;50.906;6.786;2023-11-18T05:09:16;101047.09;;;3.18;98.94
9129;BME280;4599;50.906;6.786;2023-11-18T05:13:18;101037.00;;;3.16;99.15
9129;BME280;4599;50.906;6.786;2023-11-18T05:17:20;101029.25;;;3.22;99.15
9129;BME280;4599;50.906;6.786;2023-11-18T05:21:21;101026.53;;;3.27;98.60
9129;BME280;4599;50.906;6.786;2023-11-18T05:25:24;101017.94;;;3.32;98.16
9129;BME280;4599;50.906;6.786;2023-11-18T05:29:26;101019.56;;;3.33;98.46
9129;BME280;4599;50.906;6.786;2023-11-18T05:33:27;101016.19;;;3.34;98.53
9129;BME280;4599;50.906;6.786;2023-11-18T05:37:29;101007.63;;;3.38;98.33
9129;BME280;4599;50.906;6.786;2023-11-18T05:41:32;101014.09;;;3.47;98.15
9129;BME280;4599;50.906;6.786;2023-11-18T05:45:34;101008.84;;;3.53;97.89
9129;BME280;4599;50.906;6.786;2023-11-18T05:49:35;100996.19;;;3.51;97.81
9129;BME280;4599;50.906;6.786;2023-11-18T05:53:39;100990.88;;;3.59;97.32
9129;BME280;4599;50.906;6.786;2023-11-18T05:57:42;100984.47;;;3.49;97.77
9129;BME280;4599;50.906;6.786;2023-11-18T06:01:44;100988.94;;;3.41;98.43
9129;BME280;4599;50.906;6.786;2023-11-18T06:05:45;100992.50;;;3.35;98.76
9129;BME280;4599;50.906;6.786;2023-11-18T06:09:47;101001.84;;;3.33;99.27
9129;BME280;4599;50.906;6.786;2023-11-18T06:13:51;100996.75;;;3.35;99.18
9129;BME280;4599;50.906;6.786;2023-11-18T06:17:53;100975.06;;;3.53;98.85
9129;BME280;4599;50.906;6.786;2023-11-18T06:21:54;100971.09;;;3.70;97.95
9129;BME280;4599;50.906;6.786;2023-11-18T06:25:56;100964.34;;;3.69;98.20
9129;BME280;4599;50.906;6.786;2023-11-18T06:29:59;100961.34;;;3.83;97.21
9129;BME280;4599;50.906;6.786;2023-11-18T06:34:01;100974.00;;;3.84;97.54
9129;BME280;4599;50.906;6.786;2023-11-18T06:38:02;100979.06;;;3.84;97.65
9129;BME280;4599;50.906;6.786;2023-11-18T06:42:04;100972.22;;;3.86;97.69
9129;BME280;4599;50.906;6.786;2023-11-18T06:46:07;100951.75;;;3.92;97.93
9129;BME280;4599;50.906;6.786;2023-11-18T06:50:12;100964.25;;;3.97;97.04
9129;BME280;4599;50.906;6.786;2023-11-18T06:54:14;100988.00;;;3.94;97.35
9129;BME280;4599;50.906;6.786;2023-11-18T06:58:17;100952.38;;;3.74;97.76
9129;BME280;4599;50.906;6.786;2023-11-18T07:02:19;100967.69;;;3.96;97.61
9129;BME280;4599;50.906;6.786;2023-11-18T07:06:21;100977.81;;;3.96;96.93
9129;BME280;4599;50.906;6.786;2023-11-18T07:10:23;100994.31;;;4.08;96.75
9129;BME280;4599;50.906;6.786;2023-11-18T07:14:24;101005.53;;;4.00;97.13
9129;BME280;4599;50.906;6.786;2023-11-18T07:18:27;101009.88;;;3.97;97.58
9129;BME280;4599;50.906;6.786;2023-11-18T07:22:35;101018.41;;;3.96;97.33
9129;BME280;4599;50.906;6.786;2023-11-18T07:26:37;101023.28;;;4.00;97.13
9129;BME280;4599;50.906;6.786;2023-11-18T07:30:38;101014.91;;;3.98;96.93
9129;BME280;4599;50.906;6.786;2023-11-18T07:34:41;101000.66;;;3.96;97.31
9129;BME280;4599;50.906;6.786;2023-11-18T07:38:43;100989.34;;;4.05;96.56
9129;BME280;4599;50.906;6.786;2023-11-18T07:42:44;100986.75;;;4.06;96.70
9129;BME280;4599;50.906;6.786;2023-11-18T07:46:46;100965.66;;;4.06;96.99
9129;BME280;4599;50.906;6.786;2023-11-18T07:50:48;100963.06;;;4.07;97.38
9129;BME280;4599;50.906;6.786;2023-11-18T07:54:50;100953.53;;;4.14;96.84
9129;BME280;4599;50.906;6.786;2023-11-18T07:58:54;100960.16;;;4.18;96.81
9129;BME280;4599;50.906;6.786;2023-11-18T08:02:55;100969.19;;;4.25;96.74
9129;BME280;4599;50.906;6.786;2023-11-18T08:06:58;100967.97;;;4.35;97.12
9129;BME280;4599;50.906;6.786;2023-11-18T08:10:59;100971.53;;;4.29;96.80
9129;BME280;4599;50.906;6.786;2023-11-18T08:15:01;100959.38;;;4.39;96.74
9129;BME280;4599;50.906;6.786;2023-11-18T08:19:03;100959.91;;;4.47;96.41
9129;BME280;4599;50.906;6.786;2023-11-18T08:23:06;100958.34;;;4.43;96.58
9129;BME280;4599;50.906;6.786;2023-11-18T08:27:07;100970.88;;;4.47;97.11
9129;BME280;4599;50.906;6.786;2023-11-18T08:31:09;100971.56;;;4.53;96.89
9129;BME280;4599;50.906;6.786;2023-11-18T08:35:11;100975.44;;;4.61;96.26
9129;BME280;4599;50.906;6.786;2023-11-18T08:39:14;100965.25;;;4.63;96.24
9129;BME280;4599;50.906;6.786;2023-11-18T08:43:16;100965.97;;;4.66;96.37
9129;BME280;4599;50.906;6.786;2023-11-18T08:47:17;100961.91;;;4.84;96.21
9129;BME280;4599;50.906;6.786;2023-11-18T08:51:19;100952.69;;;4.81;96.05
9129;BME280;4599;50.906;6.786;2023-11-18T08:55:21;100948.38;;;4.83;95.79
9129;BME280;4599;50.906;6.786;2023-11-18T08:59:23;100954.72;;;4.95;95.39
9129;BME280;4599;50.906;6.786;2023-11-18T09:03:25;100978.06;;;5.03;95.28
9129;BME280;4599;50.906;6.786;2023-11-18T09:07:27;100965.31;;;5.05;95.49
9129;BME280;4599;50.906;6.786;2023-11-18T09:11:30;100964.44;;;5.06;96.38
9129;BME280;4599;50.906;6.786;2023-11-18T09:15:31;100953.34;;;5.08;95.30
9129;BME280;4599;50.906;6.786;2023-11-18T09:19:33;100939.94;;;5.25;95.76
9129;BME280;4599;50.906;6.786;2023-11-18T09:23:35;100939.38;;;5.18;94.85
9129;BME280;4599;50.906;6.786;2023-11-18T09:27:37;100929.16;;;5.20;95.61
9129;BME280;4599;50.906;6.786;2023-11-18T09:31:39;100913.84;;;5.21;95.32
9129;BME280;4599;50.906;6.786;2023-11-18T09:35:40;100934.56;;;5.32;96.20
9129;BME280;4599;50.906;6.786;2023-11-18T09:39:42;100933.19;;;5.45;94.69
9129;BME280;4599;50.906;6.786;2023-11-18T09:43:46;100941.53;;;5.49;95.01
9129;BME280;4599;50.906;6.786;2023-11-18T09:47:49;100943.03;;;5.53;94.61
9129;BME280;4599;50.906;6.786;2023-11-18T09:51:57;100940.16;;;5.61;94.95
9129;BME280;4599;50.906;6.786;2023-11-18T09:56:04;100927.97;;;5.69;95.00
9129;BME280;4599;50.906;6.786;2023-11-18T10:00:11;100925.84;;;5.78;94.31
9129;BME280;4599;50.906;6.786;2023-11-18T10:04:14;100912.53;;;5.73;94.46
9129;BME280;4599;50.906;6.786;2023-11-18T10:08:15;100908.97;;;5.77;95.02
9129;BME280;4599;50.906;6.786;2023-11-18T10:12:17;100913.97;;;5.79;95.21
9129;BME280;4599;50.906;6.786;2023-11-18T10:16:20;100909.84;;;5.76;95.09
9129;BME280;4599;50.906;6.786;2023-11-18T10:20:22;100902.34;;;5.93;94.25
9129;BME280;4599;50.906;6.786;2023-11-18T10:24:23;100894.91;;;5.89;94.55
9129;BME280;4599;50.906;6.786;2023-11-18T10:28:26;100865.44;;;5.83;95.33
9129;BME280;4599;50.906;6.786;2023-11-18T10:32:29;100875.41;;;6.08;94.33
9129;BME280;4599;50.906;6.786;2023-11-18T10:36:30;100851.44;;;6.31;93.12
9129;BME280;4599;50.906;6.786;2023-11-18T10:40:32;100845.09;;;6.39;92.76
9129;BME280;4599;50.906;6.786;2023-11-18T10:44:33;100838.91;;;6.45;92.23
9129;BME280;4599;50.906;6.786;2023-11-18T10:48:38;100837.13;;;6.47;92.82
9129;BME280;4599;50.906;6.786;2023-11-18T10:52:39;100829.13;;;6.55;93.76
9129;BME280;4599;50.906;6.786;2023-11-18T10:56:46;100805.97;;;6.59;94.71
9129;BME280;4599;50.906;6.786;2023-11-18T11:00:49;100811.00;;;6.61;93.24
9129;BME280;4599;50.906;6.786;2023-11-18T11:04:52;100809.44;;;6.58;94.14
9129;BME280;4599;50.906;6.786;2023-11-18T11:08:53;100816.31;;;6.56;93.76
9129;BME280;4599;50.906;6.786;2023-11-18T11:12:59;100796.03;;;6.55;93.95
9129;BME280;4599;50.906;6.786;2023-11-18T11:17:05;100794.69;;;6.65;93.41
9129;BME280;4599;50.906;6.786;2023-11-18T11:21:14;100793.69;;;6.67;93.42
9129;BME280;4599;50.906;6.786;2023-11-18T11:25:19;100785.75;;;6.73;93.94
9129;BME280;4599;50.906;6.786;2023-11-18T11:29:26;100784.28;;;6.86;92.81
9129;BME280;4599;50.906;6.786;2023-11-18T11:33:32;100769.72;;;6.88;93.32
9129;BME280;4599;50.906;6.786;2023-11-18T11:37:36;100762.44;;;6.98;92.52
9129;BME280;4599;50.906;6.786;2023-11-18T11:41:39;100757.22;;;7.01;92.23
9129;BME280;4599;50.906;6.786;2023-11-18T11:45:40;100734.50;;;6.96;92.05
9129;BME280;4599;50.906;6.786;2023-11-18T11:49:47;100742.44;;;7.08;91.45
9129;BME280;4599;50.906;6.786;2023-11-18T11:53:57;100739.44;;;6.99;92.11
9129;BME280;4599;50.906;6.786;2023-11-18T11:58:01;100734.53;;;7.12;91.47
9129;BME280;4599;50.906;6.786;2023-11-18T12:02:03;100735.13;;;7.17;91.04
9129;BME280;4599;50.906;6.786;2023-11-18T12:06:06;100726.50;;;7.20;91.13
9129;BME280;4599;50.906;6.786;2023-11-18T12:10:11;100716.56;;;7.31;89.74
9129;BME280;4599;50.906;6.786;2023-11-18T12:14:14;100715.84;;;7.29;89.86
9129;BME280;4599;50.906;6.786;2023-11-18T12:18:15;100701.38;;;7.29;88.91
9129;BME280;4599;50.906;6.786;2023-11-18T12:22:18;100692.56;;;7.35;89.22
9129;BME280;4599;50.906;6.786;2023-11-18T12:26:39;100692.50;;;7.36;88.96
9129;BME280;4599;50.906;6.786;2023-11-18T12:30:42;100674.88;;;7.32;88.53
9129;BME280;4599;50.906;6.786;2023-11-18T12:34:49;100668.13;;;7.31;88.93
9129;BME280;4599;50.906;6.786;2023-11-18T12:39:04;100656.81;;;7.36;88.12
9129;BME280;4599;50.906;6.786;2023-11-18T12:43:16;100647.03;;;7.29;88.60
9129;BME280;4599;50.906;6.786;2023-11-18T12:47:20;100632.38;;;7.17;89.37
9129;BME280;4599;50.906;6.786;2023-11-18T12:51:24;100619.06;;;7.12;88.62
9129;BME280;4599;50.906;6.786;2023-11-18T12:55:26;100612.22;;;7.12;88.61
9129;BME280;4599;50.906;6.786;2023-11-18T12:59:29;100582.72;;;7.08;90.16
9129;BME280;4599;50.906;6.786;2023-11-18T13:03:31;100584.34;;;7.09;90.07
9129;BME280;4599;50.906;6.786;2023-11-18T13:07:32;100578.75;;;7.03;90.42
9129;BME280;4599;50.906;6.786;2023-11-18T13:11:34;100572.94;;;7.00;90.91
9129;BME280;4599;50.906;6.786;2023-11-18T13:15:37;100545.16;;;6.96;91.56
9129;BME280;4599;50.906;6.786;2023-11-18T13:19:39;100528.28;;;6.78;91.83
9129;BME280;4599;50.906;6.786;2023-11-18T13:23:41;100538.41;;;6.95;92.46
9129;BME280;4599;50.906;6.786;2023-11-18T13:27:42;100516.88;;;7.00;92.90
9129;BME280;4599;50.906;6.786;2023-11-18T13:31:45;100498.41;;;6.97;93.46
9129;BME280;4599;50.906;6.786;2023-11-18T13:35:46;100483.53;;;6.89;94.04
9129;BME280;4599;50.906;6.786;2023-11-18T13:39:55;100476.13;;;7.00;93.62
9129;BME280;4599;50.906;6.786;2023-11-18T13:43:56;100476.44;;;6.94;93.73
9129;BME280;4599;50.906;6.786;2023-11-18T13:48:00;100459.53;;;6.93;94.26
9129;BME280;4599;50.906;6.786;2023-11-18T13:52:01;100458.94;;;6.88;94.48
9129;BME280;4599;50.906;6.786;2023-11-18T13:56:04;100453.84;;;6.88;94.07
9129;BME280;4599;50.906;6.786;2023-11-18T14:00:07;100443.09;;;6.83;93.70
9129;BME280;4599;50.906;6.786;2023-11-18T14:04:11;100436.25;;;6.84;93.91
9129;BME280;4599;50.906;6.786;2023-11-18T14:08:17;100434.06;;;6.78;94.34
9129;BME280;4599;50.906;6.786;2023-11-18T14:12:18;100402.50;;;6.80;93.97
9129;BME280;4599;50.906;6.786;2023-11-18T14:16:20;100387.63;;;6.88;94.96
9129;BME280;4599;50.906;6.786;2023-11-18T14:20:23;100375.72;;;6.73;95.04
9129;BME280;4599;50.906;6.786;2023-11-18T14:24:24;100385.91;;;6.73;95.22
9129;BME280;4599;50.906;6.786;2023-11-18T14:28:26;100363.00;;;6.73;95.68
9129;BME280;4599;50.906;6.786;2023-11-18T14:32:27;100371.38;;;6.75;94.67
9129;BME280;4599;50.906;6.786;2023-11-18T14:36:30;100379.38;;;6.69;95.13
9129;BME280;4599;50.906;6.786;2023-11-18T14:40:32;100355.53;;;6.70;95.77
9129;BME280;4599;50.906;6.786;2023-11-18T14:44:34;100353.25;;;6.66;95.32
9129;BME280;4599;50.906;6.786;2023-11-18T14:48:35;100341.78;;;6.59;94.70
9129;BME280;4599;50.906;6.786;2023-11-18T14:52:38;100345.28;;;6.56;96.14
9129;BME280;4599;50.906;6.786;2023-11-18T14:56:39;100341.66;;;6.60;96.23
9129;BME280;4599;50.906;6.786;2023-11-18T15:00:41;100313.75;;;6.59;95.73
9129;BME280;4599;50.906;6.786;2023-11-18T15:04:43;100290.53;;;6.49;96.78
9129;BME280;4599;50.906;6.786;2023-11-18T15:08:45;100291.44;;;6.48;96.41
9129;BME280;4599;50.906;6.786;2023-11-18T15:12:48;100283.88;;;6.46;96.53
9129;BME280;4599;50.906;6.786;2023-11-18T15:16:49;100255.63;;;6.51;96.55
9129;BME280;4599;50.906;6.786;2023-11-18T15:20:51;100255.63;;;6.51;96.58
9129;BME280;4599;50.906;6.786;2023-11-18T15:24:54;100256.09;;;6.58;96.85
9129;BME280;4599;50.906;6.786;2023-11-18T15:28:56;100259.28;;;6.61;96.10
9129;BME280;4599;50.906;6.786;2023-11-18T15:32:57;100247.09;;;6.66;96.66
9129;BME280;4599;50.906;6.786;2023-11-18T15:36:59;100243.75;;;6.66;96.11
9129;BME280;4599;50.906;6.786;2023-11-18T15:41:02;100231.56;;;6.71;95.24
9129;BME280;4599;50.906;6.786;2023-11-18T15:45:05;100226.03;;;6.64;95.75
9129;BME280;4599;50.906;6.786;2023-11-18T15:49:06;100206.38;;;6.66;95.50
9129;BME280;4599;50.906;6.786;2023-11-18T15:53:08;100194.59;;;6.79;96.15
9129;BME280;4599;50.906;6.786;2023-11-18T15:57:11;100209.94;;;6.78;95.25
9129;BME280;4599;50.906;6.786;2023-11-18T16:01:13;100182.38;;;6.70;95.76
9129;BME280;4599;50.906;6.786;2023-11-18T16:05:15;100198.56;;;6.69;96.38
9129;BME280;4599;50.906;6.786;2023-11-18T16:09:17;100209.75;;;6.67;96.52
9129;BME280;4599;50.906;6.786;2023-11-18T16:13:20;100196.09;;;6.68;96.52
9129;BME280;4599;50.906;6.786;2023-11-18T16:17:21;100203.50;;;6.72;96.66
9129;BME280;4599;50.906;6.786;2023-11-18T16:21:23;100176.38;;;6.71;96.06
9129;BME280;4599;50.906;6.786;2023-11-18T16:25:25;100175.03;;;6.80;96.13
9129;BME280;4599;50.906;6.786;2023-11-18T16:29:30;100164.28;;;6.75;96.49
9129;BME280;4599;50.906;6.786;2023-11-18T16:33:34;100157.66;;;6.72;97.58
9129;BME280;4599;50.906;6.786;2023-11-18T16:37:35;100144.16;;;6.70;97.93
9129;BME280;4599;50.906;6.786;2023-11-18T16:41:37;100131.09;;;6.76;97.09
9129;BME280;4599;50.906;6.786;2023-11-18T16:45:48;100137.47;;;6.69;97.80
9129;BME280;4599;50.906;6.786;2023-11-18T16:49:52;100125.19;;;6.76;97.80
9129;BME280;4599;50.906;6.786;2023-11-18T16:54:04;100114.81;;;6.79;97.74
9129;BME280;4599;50.906;6.786;2023-11-18T16:58:06;100112.25;;;6.79;97.31
9129;BME280;4599;50.906;6.786;2023-11-18T17:02:09;100117.34;;;6.93;96.51
9129;BME280;4599;50.906;6.786;2023-11-18T17:06:11;100113.53;;;6.86;97.13
9129;BME280;4599;50.906;6.786;2023-11-18T17:10:12;100095.25;;;6.79;97.17
9129;BME280;4599;50.906;6.786;2023-11-18T17:14:14;100106.25;;;6.94;97.71
9129;BME280;4599;50.906;6.786;2023-11-18T17:18:17;100099.25;;;6.97;96.77
9129;BME280;4599;50.906;6.786;2023-11-18T17:22:18;100089.97;;;6.96;96.73
9129;BME280;4599;50.906;6.786;2023-11-18T17:26:20;100097.50;;;6.98;97.52
9129;BME280;4599;50.906;6.786;2023-11-18T17:30:21;100084.59;;;7.01;96.78
9129;BME280;4599;50.906;6.786;2023-11-18T17:34:24;100088.13;;;6.98;97.16
9129;BME280;4599;50.906;6.786;2023-11-18T17:38:26;100073.91;;;7.09;97.02
9129;BME280;4599;50.906;6.786;2023-11-18T17:42:28;100070.38;;;7.11;96.97
9129;BME280;4599;50.906;6.786;2023-11-18T17:46:29;100076.66;;;7.06;97.01
9129;BME280;4599;50.906;6.786;2023-11-18T17:50:32;100073.38;;;7.04;97.08
9129;BME280;4599;50.906;6.786;2023-11-18T17:54:34;100065.94;;;7.00;97.42
9129;BME280;4599;50.906;6.786;2023-11-18T17:58:35;100057.81;;;7.08;98.13
9129;BME280;4599;50.906;6.786;2023-11-18T18:02:37;100054.97;;;7.13;97.00
9129;BME280;4599;50.906;6.786;2023-11-18T18:06:40;100063.72;;;7.09;97.34
9129;BME280;4599;50.906;6.786;2023-11-18T18:10:41;100066.88;;;7.12;98.05
9129;BME280;4599;50.906;6.786;2023-11-18T18:14:43;100072.63;;;7.16;97.88
9129;BME280;4599;50.906;6.786;2023-11-18T18:18:45;100083.09;;;7.25;98.08
9129;BME280;4599;50.906;6.786;2023-11-18T18:22:48;100083.84;;;7.40;97.66
9129;BME280;4599;50.906;6.786;2023-11-18T18:26:49;100075.47;;;7.38;97.56
9129;BME280;4599;50.906;6.786;2023-11-18T18:30:50;100066.91;;;7.39;97.35
9129;BME280;4599;50.906;6.786;2023-11-18T18:34:52;100067.38;;;7.58;96.85
9129;BME280;4599;50.906;6.786;2023-11-18T18:38:55;100069.56;;;7.64;96.82
9129;BME280;4599;50.906;6.786;2023-11-18T18:42:56;100072.81;;;7.66;96.60
9129;BME280;4599;50.906;6.786;2023-11-18T18:46:58;100055.50;;;7.71;96.98
9129;BME280;4599;50.906;6.786;2023-11-18T18:51:01;100034.47;;;7.68;97.11
9129;BME280;4599;50.906;6.786;2023-11-18T18:55:05;100039.38;;;7.83;96.61
9129;BME280;4599;50.906;6.786;2023-11-18T18:59:06;100043.56;;;7.72;96.71
9129;BME280;4599;50.906;6.786;2023-11-18T19:03:08;100036.94;;;7.82;96.12
9129;BME280;4599;50.906;6.786;2023-11-18T19:07:10;100038.69;;;7.81;96.41
9129;BME280;4599;50.906;6.786;2023-11-18T19:11:12;100022.66;;;7.79;96.54
9129;BME280;4599;50.906;6.786;2023-11-18T19:15:14;100051.44;;;7.81;97.14
9129;BME280;4599;50.906;6.786;2023-11-18T19:19:16;100050.81;;;7.90;97.12
9129;BME280;4599;50.906;6.786;2023-11-18T19:23:17;100043.38;;;7.87;96.71
9129;BME280;4599;50.906;6.786;2023-11-18T19:27:20;100044.31;;;7.99;96.58
9129;BME280;4599;50.906;6.786;2023-11-18T19:31:22;100044.50;;;7.96;96.53
9129;BME280;4599;50.906;6.786;2023-11-18T19:35:23;100044.00;;;8.04;96.19
9129;BME280;4599;50.906;6.786;2023-11-18T19:39:25;100049.13;;;8.16;95.81
9129;BME280;4599;50.906;6.786;2023-11-18T19:43:28;100041.13;;;8.08;95.73
9129;BME280;4599;50.906;6.786;2023-11-18T19:47:29;100031.53;;;8.12;96.07
9129;BME280;4599;50.906;6.786;2023-11-18T19:51:31;100019.31;;;8.17;96.17
9129;BME280;4599;50.906;6.786;2023-11-18T19:55:33;100010.31;;;8.24;95.35
9129;BME280;4599;50.906;6.786;2023-11-18T19:59:38;100002.56;;;8.38;95.30
9129;BME280;4599;50.906;6.786;2023-11-18T20:03:39;99992.78;;;8.32;95.44
9129;BME280;4599;50.906;6.786;2023-11-18T20:07:41;99991.41;;;8.26;96.11
9129;BME280;4599;50.906;6.786;2023-11-18T20:11:49;99997.88;;;8.44;95.86
9129;BME280;4599;50.906;6.786;2023-11-18T20:15:52;99974.50;;;8.38;95.25
9129;BME280;4599;50.906;6.786;2023-11-18T20:19:54;99974.34;;;8.52;95.63
9129;BME280;4599;50.906;6.786;2023-11-18T20:23:55;99963.84;;;8.44;96.01
9129;BME280;4599;50.906;6.786;2023-11-18T20:27:57;99963.22;;;8.53;95.51
9129;BME280;4599;50.906;6.786;2023-11-18T20:32:00;99953.84;;;8.54;96.11
9129;BME280;4599;50.906;6.786;2023-11-18T20:36:04;99941.44;;;8.60;95.34
9129;BME280;4599;50.906;6.786;2023-11-18T20:40:07;99943.19;;;8.60;95.85
9129;BME280;4599;50.906;6.786;2023-11-18T20:44:09;99942.19;;;8.49;96.22
9129;BME280;4599;50.906;6.786;2023-11-18T20:48:12;99931.84;;;8.51;96.21
9129;BME280;4599;50.906;6.786;2023-11-18T20:52:13;99921.09;;;8.71;95.99
9129;BME280;4599;50.906;6.786;2023-11-18T20:56:15;99910.59;;;8.63;96.03
9129;BME280;4599;50.906;6.786;2023-11-18T21:00:17;99911.47;;;8.75;95.24
9129;BME280;4599;50.906;6.786;2023-11-18T21:04:19;99903.94;;;8.84;95.87
9129;BME280;4599;50.906;6.786;2023-11-18T21:08:21;99916.72;;;8.84;95.67
9129;BME280;4599;50.906;6.786;2023-11-18T21:12:23;99910.69;;;8.85;96.46
9129;BME280;4599;50.906;6.786;2023-11-18T21:16:25;99904.94;;;8.71;96.75
9129;BME280;4599;50.906;6.786;2023-11-18T21:20:28;99907.09;;;8.88;96.56
9129;BME280;4599;50.906;6.786;2023-11-18T21:24:29;99902.41;;;9.06;96.17
9129;BME280;4599;50.906;6.786;2023-11-18T21:28:31;99891.28;;;9.07;95.97
9129;BME280;4599;50.906;6.786;2023-11-18T21:32:34;99885.25;;;9.19;95.99
9129;BME280;4599;50.906;6.786;2023-11-18T21:36:37;99871.00;;;9.38;95.92
9129;BME280;4599;50.906;6.786;2023-11-18T21:40:38;99846.91;;;9.30;95.83
9129;BME280;4599;50.906;6.786;2023-11-18T21:44:40;99849.63;;;9.50;94.92
9129;BME280;4599;50.906;6.786;2023-11-18T21:48:41;99843.94;;;9.58;94.62
9129;BME280;4599;50.906;6.786;2023-11-18T21:52:44;99852.75;;;9.54;95.53
9129;BME280;4599;50.906;6.786;2023-11-18T21:56:45;99838.09;;;9.67;94.99
9129;BME280;4599;50.906;6.786;2023-11-18T22:00:47;99844.03;;;9.68;94.76